N720CC KMIA-KTEB
Flight info
| Callsign | N720CC |
|---|---|
| Flight time | 2h 20m |
| Altitude | 43000 |
| Route | FOLZZ3 ALYRA GRUBR/N0482F450 Y299 SEELO GARIC ZORDO Q111 SWNGR JAIKE4 |
| Aircraft | C750/M-SBDE3FGHRWXY/S |
Departure
| Time | 2026-05-08 19:29 |
|---|---|
| Airport | Miami International Airport (KMIA) |
Arrival
| Time | 2026-05-08 21:50 |
|---|---|
| Airport | Teterboro Airport (KTEB) |
| Time | Latitude | Longitude | Altitude | Speed | Heading |
|---|---|---|---|---|---|
| 2026-05-08 19:14 | 25.80592 | -80.29027 | 11 ft | 0 kts | 358° |
| 2026-05-08 19:23 | 25.80593 | -80.29028 | 11 ft | 0 kts | 347° |
| 2026-05-08 19:24 | 25.80593 | -80.29030 | 11 ft | 1 kts | 315° |
| 2026-05-08 19:24 | 25.80591 | -80.29035 | 11 ft | 2 kts | 262° |
| 2026-05-08 19:24 | 25.80599 | -80.29057 | 11 ft | 3 kts | 312° |
| 2026-05-08 19:24 | 25.80612 | -80.29067 | 11 ft | 3 kts | 322° |
| 2026-05-08 19:25 | 25.80634 | -80.29089 | 11 ft | 4 kts | 304° |
| 2026-05-08 19:25 | 25.80617 | -80.29132 | 11 ft | 10 kts | 208° |
| 2026-05-08 19:25 | 25.80551 | -80.29137 | 11 ft | 9 kts | 180° |
| 2026-05-08 19:25 | 25.80491 | -80.29139 | 11 ft | 10 kts | 184° |
| 2026-05-08 19:26 | 25.80439 | -80.29196 | 12 ft | 12 kts | 269° |
| 2026-05-08 19:26 | 25.80438 | -80.29281 | 12 ft | 10 kts | 260° |
| 2026-05-08 19:26 | 25.80433 | -80.29379 | 11 ft | 16 kts | 267° |
| 2026-05-08 19:26 | 25.80427 | -80.29510 | 11 ft | 19 kts | 267° |
| 2026-05-08 19:27 | 25.80420 | -80.29649 | 12 ft | 17 kts | 265° |
| 2026-05-08 19:27 | 25.80417 | -80.29778 | 12 ft | 16 kts | 267° |
| 2026-05-08 19:27 | 25.80411 | -80.29899 | 12 ft | 15 kts | 265° |
| 2026-05-08 19:27 | 25.80407 | -80.30010 | 11 ft | 14 kts | 266° |
| 2026-05-08 19:28 | 25.80349 | -80.30066 | 12 ft | 13 kts | 176° |
| 2026-05-08 19:28 | 25.80299 | -80.29997 | 12 ft | 16 kts | 90° |
| 2026-05-08 19:28 | 25.80312 | -80.29656 | 11 ft | 88 kts | 87° |
| 2026-05-08 19:28 | 25.80352 | -80.28709 | 22 ft | 147 kts | 88° |
| 2026-05-08 19:29 | 25.80382 | -80.27573 | 485 ft | 150 kts | 90° |
| 2026-05-08 19:29 | 25.80196 | -80.26393 | 811 ft | 168 kts | 114° |
| 2026-05-08 19:29 | 25.79570 | -80.25293 | 1302 ft | 177 kts | 122° |
| 2026-05-08 19:29 | 25.78862 | -80.24125 | 1684 ft | 192 kts | 124° |
| 2026-05-08 19:30 | 25.78035 | -80.22870 | 2019 ft | 213 kts | 125° |
| 2026-05-08 19:30 | 25.77097 | -80.21400 | 2360 ft | 250 kts | 124° |
| 2026-05-08 19:30 | 25.76150 | -80.19699 | 3061 ft | 266 kts | 121° |
| 2026-05-08 19:30 | 25.75206 | -80.18025 | 4346 ft | 256 kts | 123° |
| 2026-05-08 19:31 | 25.74476 | -80.16182 | 4894 ft | 269 kts | 101° |
| 2026-05-08 19:31 | 25.74340 | -80.14076 | 5039 ft | 275 kts | 93° |
| 2026-05-08 19:31 | 25.74349 | -80.11956 | 5025 ft | 276 kts | 85° |
| 2026-05-08 19:31 | 25.74756 | -80.09848 | 5523 ft | 281 kts | 66° |
| 2026-05-08 19:32 | 25.75849 | -80.08096 | 6626 ft | 277 kts | 52° |
| 2026-05-08 19:32 | 25.77084 | -80.06426 | 7514 ft | 283 kts | 50° |
| 2026-05-08 19:32 | 25.78384 | -80.04797 | 8482 ft | 288 kts | 48° |
| 2026-05-08 19:32 | 25.79309 | -80.03649 | 9159 ft | 291 kts | 49° |
| 2026-05-08 19:33 | 25.80691 | -80.01933 | 10176 ft | 298 kts | 49° |
| 2026-05-08 19:33 | 25.82063 | -80.00175 | 10713 ft | 317 kts | 50° |
| 2026-05-08 19:33 | 25.83558 | -79.98233 | 10852 ft | 345 kts | 49° |
| 2026-05-08 19:33 | 25.85198 | -79.96153 | 11043 ft | 366 kts | 49° |
| 2026-05-08 19:34 | 25.86889 | -79.94035 | 11865 ft | 365 kts | 47° |
| 2026-05-08 19:34 | 25.88655 | -79.91976 | 12443 ft | 373 kts | 49° |
| 2026-05-08 19:34 | 25.90298 | -79.89728 | 13135 ft | 376 kts | 52° |
| 2026-05-08 19:34 | 25.91964 | -79.87458 | 13761 ft | 381 kts | 49° |
| 2026-05-08 19:35 | 25.93747 | -79.85256 | 14402 ft | 385 kts | 46° |
| 2026-05-08 19:35 | 25.95562 | -79.83038 | 15055 ft | 390 kts | 47° |
| 2026-05-08 19:35 | 25.97343 | -79.80737 | 15665 ft | 395 kts | 49° |
| 2026-05-08 19:35 | 25.99131 | -79.78397 | 16294 ft | 398 kts | 48° |
| 2026-05-08 19:36 | 26.00963 | -79.76068 | 16926 ft | 402 kts | 47° |
| 2026-05-08 19:36 | 26.02825 | -79.73728 | 17545 ft | 407 kts | 47° |
| 2026-05-08 19:36 | 26.04694 | -79.71341 | 18175 ft | 411 kts | 47° |
| 2026-05-08 19:36 | 26.06572 | -79.68918 | 18780 ft | 416 kts | 47° |
| 2026-05-08 19:37 | 26.08455 | -79.66506 | 19409 ft | 420 kts | 46° |
| 2026-05-08 19:37 | 26.10383 | -79.64040 | 20034 ft | 425 kts | 47° |
| 2026-05-08 19:37 | 26.12151 | -79.61367 | 20589 ft | 432 kts | 53° |
| 2026-05-08 19:37 | 26.13869 | -79.58609 | 21261 ft | 435 kts | 53° |
| 2026-05-08 19:38 | 26.15617 | -79.55840 | 21825 ft | 440 kts | 52° |
| 2026-05-08 19:38 | 26.17409 | -79.53055 | 22441 ft | 444 kts | 52° |
| 2026-05-08 19:38 | 26.19208 | -79.50235 | 22991 ft | 449 kts | 52° |
| 2026-05-08 19:38 | 26.21008 | -79.47374 | 23548 ft | 453 kts | 52° |
| 2026-05-08 19:39 | 26.22831 | -79.44488 | 24111 ft | 458 kts | 52° |
| 2026-05-08 19:39 | 26.24677 | -79.41582 | 24681 ft | 461 kts | 52° |
| 2026-05-08 19:39 | 26.26540 | -79.38649 | 25224 ft | 466 kts | 52° |
| 2026-05-08 19:39 | 26.28599 | -79.35853 | 25663 ft | 467 kts | 43° |
| 2026-05-08 19:40 | 26.31036 | -79.33464 | 26233 ft | 466 kts | 33° |
| 2026-05-08 19:40 | 26.33740 | -79.31469 | 26728 ft | 467 kts | 28° |
| 2026-05-08 19:40 | 26.36495 | -79.29520 | 27248 ft | 471 kts | 28° |
| 2026-05-08 19:40 | 26.39265 | -79.27536 | 27747 ft | 475 kts | 28° |
| 2026-05-08 19:41 | 26.42057 | -79.25539 | 28216 ft | 479 kts | 28° |
| 2026-05-08 19:41 | 26.44877 | -79.23532 | 28703 ft | 482 kts | 28° |
| 2026-05-08 19:41 | 26.47722 | -79.21508 | 29154 ft | 486 kts | 28° |
| 2026-05-08 19:41 | 26.50579 | -79.19469 | 29592 ft | 489 kts | 28° |
| 2026-05-08 19:42 | 26.53463 | -79.17406 | 30006 ft | 493 kts | 28° |
| 2026-05-08 19:42 | 26.56321 | -79.15361 | 30458 ft | 496 kts | 28° |
| 2026-05-08 19:42 | 26.59242 | -79.13271 | 30823 ft | 500 kts | 28° |
| 2026-05-08 19:42 | 26.62181 | -79.11170 | 31350 ft | 500 kts | 28° |
| 2026-05-08 19:43 | 26.64115 | -79.09785 | 31784 ft | 497 kts | 28° |
| 2026-05-08 19:43 | 26.68017 | -79.06991 | 32565 ft | 496 kts | 28° |
| 2026-05-08 19:43 | 26.69937 | -79.05613 | 32932 ft | 495 kts | 28° |
| 2026-05-08 19:43 | 26.72834 | -79.03534 | 33434 ft | 494 kts | 28° |
| 2026-05-08 19:44 | 26.75731 | -79.01455 | 33974 ft | 493 kts | 27° |
| 2026-05-08 19:44 | 26.79551 | -78.98712 | 34683 ft | 492 kts | 27° |
| 2026-05-08 19:44 | 26.81493 | -78.97317 | 35040 ft | 491 kts | 27° |
| 2026-05-08 19:44 | 26.84363 | -78.95253 | 35591 ft | 489 kts | 27° |
| 2026-05-08 19:45 | 26.87218 | -78.93199 | 36088 ft | 488 kts | 27° |
| 2026-05-08 19:45 | 26.90034 | -78.91173 | 36581 ft | 486 kts | 27° |
| 2026-05-08 19:45 | 26.92886 | -78.89118 | 37095 ft | 485 kts | 27° |
| 2026-05-08 19:45 | 26.95709 | -78.87081 | 37773 ft | 480 kts | 27° |
| 2026-05-08 19:46 | 26.98500 | -78.85066 | 38433 ft | 475 kts | 27° |
| 2026-05-08 19:46 | 27.01281 | -78.83062 | 38914 ft | 475 kts | 26° |
| 2026-05-08 19:46 | 27.06832 | -78.79056 | 39825 ft | 474 kts | 26° |
| 2026-05-08 19:47 | 27.09608 | -78.77049 | 40336 ft | 473 kts | 26° |
| 2026-05-08 19:47 | 27.12368 | -78.75050 | 40825 ft | 472 kts | 26° |
| 2026-05-08 19:47 | 27.15141 | -78.73045 | 41016 ft | 477 kts | 26° |
| 2026-05-08 19:47 | 27.17963 | -78.71010 | 41016 ft | 487 kts | 26° |
| 2026-05-08 19:48 | 27.23768 | -78.66797 | 41031 ft | 505 kts | 26° |
| 2026-05-08 19:48 | 27.30055 | -78.63473 | 41015 ft | 502 kts | 10° |
| 2026-05-08 19:49 | 27.36871 | -78.62240 | 41035 ft | 495 kts | 359° |
| 2026-05-08 19:49 | 27.43732 | -78.61365 | 41029 ft | 497 kts | 0° |
| 2026-05-08 19:50 | 27.50600 | -78.60456 | 41027 ft | 496 kts | 359° |
| 2026-05-08 19:50 | 27.57457 | -78.59583 | 41031 ft | 496 kts | 360° |
| 2026-05-08 19:51 | 27.64315 | -78.58677 | 41024 ft | 496 kts | 360° |
| 2026-05-08 19:51 | 27.71176 | -78.57793 | 41029 ft | 496 kts | 360° |
| 2026-05-08 19:52 | 27.78025 | -78.56894 | 41026 ft | 496 kts | 360° |
| 2026-05-08 19:52 | 27.84831 | -78.56010 | 41024 ft | 495 kts | 359° |
| 2026-05-08 19:53 | 27.91684 | -78.55111 | 41015 ft | 495 kts | 359° |
| 2026-05-08 19:53 | 27.98544 | -78.54215 | 41015 ft | 495 kts | 359° |
| 2026-05-08 19:54 | 28.05402 | -78.53315 | 41010 ft | 495 kts | 359° |
| 2026-05-08 19:54 | 28.12204 | -78.52424 | 41009 ft | 495 kts | 359° |
| 2026-05-08 19:55 | 28.19065 | -78.51523 | 41011 ft | 497 kts | 359° |
| 2026-05-08 19:55 | 28.25934 | -78.50618 | 41011 ft | 497 kts | 359° |
| 2026-05-08 19:56 | 28.32807 | -78.49713 | 41013 ft | 497 kts | 359° |
| 2026-05-08 19:56 | 28.39671 | -78.48807 | 41012 ft | 497 kts | 359° |
| 2026-05-08 19:57 | 28.46552 | -78.47899 | 41013 ft | 497 kts | 359° |
| 2026-05-08 19:57 | 28.53435 | -78.46988 | 41013 ft | 498 kts | 359° |
| 2026-05-08 19:58 | 28.60316 | -78.46078 | 41014 ft | 498 kts | 359° |
| 2026-05-08 19:58 | 28.67145 | -78.45172 | 40988 ft | 498 kts | 359° |
| 2026-05-08 19:59 | 28.74032 | -78.44259 | 41001 ft | 498 kts | 358° |
| 2026-05-08 19:59 | 28.80913 | -78.43342 | 41000 ft | 498 kts | 358° |
| 2026-05-08 20:00 | 28.87799 | -78.42427 | 41000 ft | 498 kts | 358° |
| 2026-05-08 20:00 | 28.94682 | -78.41508 | 40990 ft | 498 kts | 358° |
| 2026-05-08 20:01 | 29.01572 | -78.40591 | 40990 ft | 499 kts | 358° |
| 2026-05-08 20:01 | 29.08470 | -78.39666 | 40990 ft | 498 kts | 358° |
| 2026-05-08 20:02 | 29.15356 | -78.38746 | 40990 ft | 498 kts | 358° |
| 2026-05-08 20:02 | 29.22199 | -78.37828 | 40989 ft | 498 kts | 358° |
| 2026-05-08 20:03 | 29.29088 | -78.36904 | 40990 ft | 497 kts | 357° |
| 2026-05-08 20:03 | 29.35972 | -78.35979 | 40992 ft | 497 kts | 357° |
| 2026-05-08 20:04 | 29.42847 | -78.35054 | 41007 ft | 497 kts | 357° |
| 2026-05-08 20:04 | 29.49611 | -78.35009 | 41007 ft | 477 kts | 344° |
| 2026-05-08 20:05 | 29.55980 | -78.36657 | 41004 ft | 466 kts | 335° |
| 2026-05-08 20:05 | 29.62223 | -78.38676 | 41014 ft | 466 kts | 335° |
| 2026-05-08 20:06 | 29.68449 | -78.40705 | 41010 ft | 465 kts | 335° |
| 2026-05-08 20:06 | 29.74678 | -78.42735 | 41009 ft | 465 kts | 335° |
| 2026-05-08 20:07 | 29.80855 | -78.44749 | 41007 ft | 465 kts | 335° |
| 2026-05-08 20:07 | 29.87083 | -78.46784 | 41008 ft | 465 kts | 335° |
| 2026-05-08 20:08 | 29.93305 | -78.48819 | 41008 ft | 465 kts | 335° |
| 2026-05-08 20:08 | 29.99530 | -78.50858 | 41008 ft | 465 kts | 335° |
| 2026-05-08 20:09 | 30.05745 | -78.52894 | 41009 ft | 463 kts | 335° |
| 2026-05-08 20:09 | 30.11998 | -78.54799 | 40993 ft | 471 kts | 340° |
| 2026-05-08 20:10 | 30.18661 | -78.55302 | 41004 ft | 491 kts | 352° |
| 2026-05-08 20:10 | 30.25524 | -78.54391 | 41017 ft | 497 kts | 356° |
| 2026-05-08 20:11 | 30.32393 | -78.53426 | 41030 ft | 497 kts | 356° |
| 2026-05-08 20:11 | 30.39220 | -78.52437 | 41026 ft | 497 kts | 356° |
| 2026-05-08 20:12 | 30.46101 | -78.51419 | 41029 ft | 500 kts | 357° |
| 2026-05-08 20:12 | 30.53004 | -78.50237 | 41032 ft | 500 kts | 357° |
| 2026-05-08 20:13 | 30.59885 | -78.49162 | 41035 ft | 499 kts | 357° |
| 2026-05-08 20:13 | 30.66784 | -78.48019 | 41045 ft | 500 kts | 357° |
| 2026-05-08 20:14 | 30.73666 | -78.46913 | 41046 ft | 499 kts | 357° |
| 2026-05-08 20:14 | 30.80570 | -78.45786 | 41046 ft | 501 kts | 357° |
| 2026-05-08 20:15 | 30.87471 | -78.44661 | 41046 ft | 501 kts | 356° |
| 2026-05-08 20:15 | 30.94327 | -78.43543 | 41047 ft | 501 kts | 356° |
| 2026-05-08 20:16 | 31.01224 | -78.42415 | 41047 ft | 500 kts | 356° |
| 2026-05-08 20:16 | 31.08122 | -78.41287 | 41047 ft | 500 kts | 356° |
| 2026-05-08 20:17 | 31.15020 | -78.40155 | 41047 ft | 500 kts | 356° |
| 2026-05-08 20:17 | 31.21912 | -78.39024 | 41047 ft | 500 kts | 356° |
| 2026-05-08 20:18 | 31.28811 | -78.37891 | 41047 ft | 502 kts | 356° |
| 2026-05-08 20:18 | 31.35728 | -78.36751 | 41048 ft | 502 kts | 356° |
| 2026-05-08 20:19 | 31.42639 | -78.35611 | 41048 ft | 501 kts | 356° |
| 2026-05-08 20:19 | 31.49506 | -78.34477 | 41048 ft | 501 kts | 356° |
| 2026-05-08 20:20 | 31.56429 | -78.33335 | 41048 ft | 503 kts | 356° |
| 2026-05-08 20:20 | 31.63353 | -78.32183 | 41048 ft | 503 kts | 355° |
| 2026-05-08 20:21 | 31.70267 | -78.31038 | 41054 ft | 501 kts | 356° |
| 2026-05-08 20:21 | 31.77184 | -78.29890 | 41054 ft | 503 kts | 355° |
| 2026-05-08 20:22 | 31.84095 | -78.28737 | 41064 ft | 501 kts | 356° |
| 2026-05-08 20:22 | 31.89832 | -78.27784 | 41065 ft | 501 kts | 355° |
| 2026-05-08 20:23 | 31.97853 | -78.26445 | 41065 ft | 501 kts | 356° |
| 2026-05-08 20:23 | 32.04755 | -78.25345 | 41064 ft | 499 kts | 354° |
| 2026-05-08 20:24 | 32.11660 | -78.24341 | 41064 ft | 502 kts | 354° |
| 2026-05-08 20:24 | 32.18578 | -78.23326 | 41064 ft | 501 kts | 354° |
| 2026-05-08 20:25 | 32.25495 | -78.22319 | 41065 ft | 501 kts | 354° |
| 2026-05-08 20:25 | 32.32394 | -78.21303 | 41066 ft | 499 kts | 354° |
| 2026-05-08 20:26 | 32.39244 | -78.20306 | 41065 ft | 499 kts | 354° |
| 2026-05-08 20:26 | 32.46168 | -78.19285 | 41066 ft | 500 kts | 354° |
| 2026-05-08 20:27 | 32.53082 | -78.18270 | 41066 ft | 500 kts | 354° |
| 2026-05-08 20:27 | 32.59995 | -78.17251 | 41066 ft | 500 kts | 354° |
| 2026-05-08 20:28 | 32.66909 | -78.16231 | 41066 ft | 500 kts | 354° |
| 2026-05-08 20:28 | 32.73821 | -78.15210 | 41066 ft | 500 kts | 354° |
| 2026-05-08 20:29 | 32.80733 | -78.14187 | 41066 ft | 500 kts | 354° |
| 2026-05-08 20:29 | 32.87646 | -78.13162 | 41067 ft | 500 kts | 354° |
| 2026-05-08 20:30 | 32.94509 | -78.12143 | 41067 ft | 500 kts | 354° |
| 2026-05-08 20:30 | 33.01417 | -78.11116 | 41067 ft | 500 kts | 354° |
| 2026-05-08 20:31 | 33.08321 | -78.10088 | 41067 ft | 500 kts | 354° |
| 2026-05-08 20:31 | 33.15240 | -78.09056 | 41067 ft | 500 kts | 354° |
| 2026-05-08 20:32 | 33.22141 | -78.08025 | 41067 ft | 500 kts | 354° |
| 2026-05-08 20:32 | 33.27884 | -78.07166 | 41067 ft | 500 kts | 354° |
| 2026-05-08 20:33 | 33.34787 | -78.06131 | 41067 ft | 500 kts | 354° |
| 2026-05-08 20:33 | 33.41692 | -78.05095 | 41067 ft | 500 kts | 354° |
| 2026-05-08 20:34 | 33.48596 | -78.04057 | 41067 ft | 500 kts | 354° |
| 2026-05-08 20:35 | 33.58948 | -78.02498 | 41067 ft | 500 kts | 353° |
| 2026-05-08 20:35 | 33.65806 | -78.01463 | 41067 ft | 500 kts | 353° |
| 2026-05-08 20:36 | 33.72711 | -78.00420 | 41067 ft | 500 kts | 353° |
| 2026-05-08 20:36 | 33.79616 | -77.99374 | 41067 ft | 500 kts | 353° |
| 2026-05-08 20:37 | 33.86518 | -77.98328 | 41068 ft | 500 kts | 353° |
| 2026-05-08 20:37 | 33.93431 | -77.97261 | 41070 ft | 502 kts | 354° |
| 2026-05-08 20:38 | 34.00363 | -77.96164 | 41071 ft | 502 kts | 354° |
| 2026-05-08 20:38 | 34.07303 | -77.95087 | 41071 ft | 502 kts | 354° |
| 2026-05-08 20:39 | 34.14192 | -77.94000 | 41071 ft | 502 kts | 354° |
| 2026-05-08 20:39 | 34.21117 | -77.92915 | 41074 ft | 502 kts | 354° |
| 2026-05-08 20:40 | 34.28048 | -77.91823 | 41073 ft | 502 kts | 354° |
| 2026-05-08 20:40 | 34.34976 | -77.90731 | 41074 ft | 502 kts | 354° |
| 2026-05-08 20:41 | 34.41911 | -77.89636 | 41075 ft | 502 kts | 354° |
| 2026-05-08 20:41 | 34.48844 | -77.88539 | 41063 ft | 502 kts | 354° |
| 2026-05-08 20:42 | 34.55778 | -77.87441 | 41063 ft | 502 kts | 354° |
| 2026-05-08 20:42 | 34.62718 | -77.86340 | 41064 ft | 502 kts | 354° |
| 2026-05-08 20:43 | 34.69610 | -77.85244 | 41053 ft | 503 kts | 354° |
| 2026-05-08 20:43 | 34.76552 | -77.84139 | 41054 ft | 503 kts | 354° |
| 2026-05-08 20:44 | 34.83490 | -77.83032 | 41055 ft | 503 kts | 354° |
| 2026-05-08 20:44 | 34.90476 | -77.81681 | 41047 ft | 512 kts | 357° |
| 2026-05-08 20:45 | 34.97476 | -77.80111 | 41049 ft | 511 kts | 356° |
| 2026-05-08 20:45 | 35.04479 | -77.78556 | 41051 ft | 512 kts | 357° |
| 2026-05-08 20:46 | 35.11479 | -77.76978 | 41050 ft | 511 kts | 357° |
| 2026-05-08 20:46 | 35.18481 | -77.75414 | 41050 ft | 512 kts | 357° |
| 2026-05-08 20:47 | 35.25482 | -77.73836 | 41050 ft | 512 kts | 357° |
| 2026-05-08 20:47 | 35.32488 | -77.72261 | 41051 ft | 512 kts | 357° |
| 2026-05-08 20:48 | 35.39441 | -77.70692 | 41051 ft | 512 kts | 357° |
| 2026-05-08 20:48 | 35.46452 | -77.69108 | 41051 ft | 512 kts | 357° |
| 2026-05-08 20:49 | 35.53464 | -77.67521 | 41050 ft | 512 kts | 357° |
| 2026-05-08 20:49 | 35.60470 | -77.65938 | 41049 ft | 510 kts | 356° |
| 2026-05-08 20:50 | 35.67465 | -77.64695 | 41047 ft | 507 kts | 354° |
| 2026-05-08 20:50 | 35.74469 | -77.63446 | 41049 ft | 510 kts | 355° |
| 2026-05-08 20:51 | 35.81491 | -77.62191 | 41049 ft | 509 kts | 355° |
| 2026-05-08 20:51 | 35.88514 | -77.60942 | 41049 ft | 510 kts | 355° |
| 2026-05-08 20:52 | 35.95531 | -77.59684 | 41049 ft | 510 kts | 355° |
| 2026-05-08 20:52 | 36.02507 | -77.58436 | 41049 ft | 510 kts | 355° |
| 2026-05-08 20:53 | 36.09540 | -77.57173 | 41049 ft | 510 kts | 355° |
| 2026-05-08 20:53 | 36.16571 | -77.55909 | 41050 ft | 510 kts | 355° |
| 2026-05-08 20:54 | 36.23602 | -77.54643 | 41035 ft | 510 kts | 355° |
| 2026-05-08 20:54 | 36.30627 | -77.53375 | 41034 ft | 510 kts | 355° |
| 2026-05-08 20:55 | 36.37652 | -77.52106 | 41034 ft | 511 kts | 355° |
| 2026-05-08 20:55 | 36.44692 | -77.50830 | 41037 ft | 511 kts | 355° |
| 2026-05-08 20:56 | 36.51681 | -77.49563 | 41036 ft | 511 kts | 355° |
| 2026-05-08 20:56 | 36.58725 | -77.48286 | 41032 ft | 511 kts | 355° |
| 2026-05-08 20:57 | 36.65765 | -77.47035 | 41044 ft | 511 kts | 355° |
| 2026-05-08 20:57 | 36.72809 | -77.45764 | 41045 ft | 511 kts | 355° |
| 2026-05-08 20:58 | 36.79885 | -77.44496 | 41045 ft | 514 kts | 355° |
| 2026-05-08 20:58 | 36.86965 | -77.43216 | 41047 ft | 514 kts | 355° |
| 2026-05-08 20:59 | 36.94000 | -77.41948 | 41045 ft | 514 kts | 355° |
| 2026-05-08 20:59 | 37.01086 | -77.40665 | 41039 ft | 514 kts | 355° |
| 2026-05-08 21:00 | 37.08170 | -77.39382 | 41028 ft | 515 kts | 356° |
| 2026-05-08 21:00 | 37.15255 | -77.38344 | 41025 ft | 510 kts | 353° |
| 2026-05-08 21:01 | 37.22261 | -77.37426 | 41020 ft | 504 kts | 353° |
| 2026-05-08 21:01 | 37.29245 | -77.36512 | 41016 ft | 504 kts | 353° |
| 2026-05-08 21:01 | 37.32708 | -77.36302 | 41013 ft | 493 kts | 347° |
| 2026-05-08 21:02 | 37.36127 | -77.36356 | 41014 ft | 491 kts | 346° |
| 2026-05-08 21:02 | 37.42996 | -77.36302 | 41008 ft | 501 kts | 350° |
| 2026-05-08 21:02 | 37.46496 | -77.35760 | 40998 ft | 512 kts | 356° |
| 2026-05-08 21:03 | 37.50015 | -77.34872 | 41008 ft | 519 kts | 359° |
| 2026-05-08 21:03 | 37.57015 | -77.32993 | 41011 ft | 512 kts | 356° |
| 2026-05-08 21:04 | 37.64041 | -77.31768 | 41006 ft | 513 kts | 356° |
| 2026-05-08 21:04 | 37.71117 | -77.30103 | 41012 ft | 516 kts | 357° |
| 2026-05-08 21:05 | 37.78175 | -77.28132 | 41002 ft | 532 kts | 6° |
| 2026-05-08 21:05 | 37.81659 | -77.26360 | 41001 ft | 547 kts | 13° |
| 2026-05-08 21:05 | 37.85056 | -77.24104 | 41010 ft | 553 kts | 17° |
| 2026-05-08 21:06 | 37.91840 | -77.19488 | 41006 ft | 553 kts | 16° |
| 2026-05-08 21:06 | 37.98622 | -77.14845 | 41005 ft | 553 kts | 17° |
| 2026-05-08 21:07 | 38.05407 | -77.10198 | 41006 ft | 554 kts | 17° |
| 2026-05-08 21:07 | 38.12154 | -77.05564 | 40991 ft | 555 kts | 18° |
| 2026-05-08 21:08 | 38.18951 | -77.00877 | 40992 ft | 556 kts | 18° |
| 2026-05-08 21:08 | 38.22228 | -76.98178 | 40988 ft | 567 kts | 26° |
| 2026-05-08 21:08 | 38.25311 | -76.94993 | 40998 ft | 573 kts | 30° |
| 2026-05-08 21:09 | 38.31461 | -76.88542 | 40999 ft | 572 kts | 29° |
| 2026-05-08 21:09 | 38.37627 | -76.82114 | 40998 ft | 573 kts | 30° |
| 2026-05-08 21:10 | 38.43763 | -76.75650 | 40996 ft | 573 kts | 30° |
| 2026-05-08 21:10 | 38.49918 | -76.69196 | 40996 ft | 572 kts | 30° |
| 2026-05-08 21:11 | 38.56048 | -76.62720 | 40985 ft | 572 kts | 30° |
| 2026-05-08 21:11 | 38.59063 | -76.59524 | 40342 ft | 555 kts | 30° |
| 2026-05-08 21:11 | 38.62010 | -76.56407 | 39623 ft | 551 kts | 29° |
| 2026-05-08 21:11 | 38.64989 | -76.53286 | 38881 ft | 554 kts | 28° |
| 2026-05-08 21:12 | 38.67917 | -76.50184 | 38168 ft | 551 kts | 29° |
| 2026-05-08 21:12 | 38.70868 | -76.47075 | 37415 ft | 543 kts | 27° |
| 2026-05-08 21:12 | 38.73958 | -76.44442 | 36699 ft | 525 kts | 18° |
| 2026-05-08 21:12 | 38.77183 | -76.42417 | 36011 ft | 510 kts | 10° |
| 2026-05-08 21:13 | 38.80490 | -76.40756 | 35326 ft | 513 kts | 9° |
| 2026-05-08 21:13 | 38.83838 | -76.39066 | 34636 ft | 516 kts | 9° |
| 2026-05-08 21:13 | 38.87158 | -76.37324 | 33951 ft | 516 kts | 10° |
| 2026-05-08 21:13 | 38.90483 | -76.35588 | 33265 ft | 514 kts | 10° |
| 2026-05-08 21:14 | 38.93800 | -76.33904 | 32582 ft | 512 kts | 10° |
| 2026-05-08 21:14 | 38.97114 | -76.32219 | 31898 ft | 513 kts | 10° |
| 2026-05-08 21:14 | 39.00439 | -76.30501 | 31212 ft | 515 kts | 11° |
| 2026-05-08 21:14 | 39.03763 | -76.28770 | 30528 ft | 516 kts | 11° |
| 2026-05-08 21:15 | 39.07096 | -76.27045 | 29831 ft | 514 kts | 11° |
| 2026-05-08 21:15 | 39.10422 | -76.25336 | 29150 ft | 516 kts | 11° |
| 2026-05-08 21:15 | 39.13750 | -76.23505 | 28435 ft | 528 kts | 17° |
| 2026-05-08 21:15 | 39.16874 | -76.20850 | 27734 ft | 549 kts | 29° |
| 2026-05-08 21:16 | 39.19752 | -76.17554 | 27021 ft | 555 kts | 34° |
| 2026-05-08 21:16 | 39.22549 | -76.14220 | 26285 ft | 547 kts | 34° |
| 2026-05-08 21:16 | 39.25258 | -76.10991 | 25572 ft | 517 kts | 34° |
| 2026-05-08 21:16 | 39.27962 | -76.08003 | 24875 ft | 500 kts | 28° |
| 2026-05-08 21:17 | 39.30753 | -76.05408 | 24232 ft | 495 kts | 26° |
| 2026-05-08 21:17 | 39.33580 | -76.02859 | 23564 ft | 496 kts | 27° |
| 2026-05-08 21:17 | 39.36368 | -76.00232 | 22912 ft | 488 kts | 28° |
| 2026-05-08 21:17 | 39.39024 | -75.97648 | 22272 ft | 474 kts | 28° |
| 2026-05-08 21:18 | 39.41698 | -75.95134 | 21638 ft | 474 kts | 27° |
| 2026-05-08 21:18 | 39.44396 | -75.92655 | 21006 ft | 475 kts | 27° |
| 2026-05-08 21:18 | 39.47075 | -75.90137 | 20368 ft | 476 kts | 28° |
| 2026-05-08 21:18 | 39.49729 | -75.87588 | 19737 ft | 466 kts | 28° |
| 2026-05-08 21:19 | 39.52264 | -75.85159 | 19136 ft | 446 kts | 28° |
| 2026-05-08 21:19 | 39.53943 | -75.83593 | 18739 ft | 448 kts | 27° |
| 2026-05-08 21:19 | 39.56476 | -75.81244 | 18144 ft | 448 kts | 28° |
| 2026-05-08 21:19 | 39.59817 | -75.78074 | 17352 ft | 449 kts | 29° |
| 2026-05-08 21:20 | 39.62356 | -75.75728 | 16795 ft | 446 kts | 28° |
| 2026-05-08 21:20 | 39.64873 | -75.73464 | 16225 ft | 428 kts | 27° |
| 2026-05-08 21:20 | 39.67290 | -75.71259 | 15662 ft | 426 kts | 28° |
| 2026-05-08 21:20 | 39.68917 | -75.69759 | 15278 ft | 419 kts | 28° |
| 2026-05-08 21:21 | 39.71262 | -75.67582 | 14729 ft | 416 kts | 28° |
| 2026-05-08 21:21 | 39.73619 | -75.65419 | 14176 ft | 415 kts | 29° |
| 2026-05-08 21:21 | 39.75950 | -75.63286 | 13633 ft | 415 kts | 29° |
| 2026-05-08 21:21 | 39.78310 | -75.61120 | 13083 ft | 415 kts | 30° |
| 2026-05-08 21:22 | 39.80655 | -75.58946 | 13006 ft | 395 kts | 30° |
| 2026-05-08 21:22 | 39.82887 | -75.56871 | 13011 ft | 394 kts | 30° |
| 2026-05-08 21:22 | 39.85132 | -75.54814 | 13013 ft | 395 kts | 29° |
| 2026-05-08 21:22 | 39.87379 | -75.52752 | 13012 ft | 396 kts | 30° |
| 2026-05-08 21:23 | 39.89620 | -75.50669 | 13008 ft | 396 kts | 30° |
| 2026-05-08 21:23 | 39.91828 | -75.48613 | 13012 ft | 396 kts | 30° |
| 2026-05-08 21:23 | 39.94075 | -75.46539 | 13006 ft | 393 kts | 29° |
| 2026-05-08 21:23 | 39.96311 | -75.44471 | 13007 ft | 395 kts | 30° |
| 2026-05-08 21:24 | 39.98550 | -75.42389 | 13005 ft | 395 kts | 30° |
| 2026-05-08 21:24 | 40.00716 | -75.40362 | 12998 ft | 365 kts | 29° |
| 2026-05-08 21:24 | 40.02680 | -75.38521 | 12993 ft | 335 kts | 28° |
| 2026-05-08 21:24 | 40.04590 | -75.36766 | 12991 ft | 336 kts | 28° |
| 2026-05-08 21:25 | 40.06499 | -75.35008 | 12999 ft | 336 kts | 28° |
| 2026-05-08 21:25 | 40.08407 | -75.33226 | 12998 ft | 337 kts | 28° |
| 2026-05-08 21:25 | 40.10321 | -75.31435 | 12996 ft | 338 kts | 28° |
| 2026-05-08 21:25 | 40.12203 | -75.29674 | 13000 ft | 337 kts | 28° |
| 2026-05-08 21:26 | 40.14116 | -75.27892 | 12993 ft | 337 kts | 28° |
| 2026-05-08 21:26 | 40.16028 | -75.26112 | 12979 ft | 336 kts | 28° |
| 2026-05-08 21:26 | 40.17950 | -75.24322 | 12649 ft | 337 kts | 28° |
| 2026-05-08 21:26 | 40.19829 | -75.22564 | 12207 ft | 326 kts | 28° |
| 2026-05-08 21:27 | 40.21631 | -75.20872 | 11777 ft | 311 kts | 28° |
| 2026-05-08 21:27 | 40.23368 | -75.19251 | 11373 ft | 304 kts | 28° |
| 2026-05-08 21:27 | 40.25095 | -75.17649 | 10966 ft | 304 kts | 28° |
| 2026-05-08 21:27 | 40.26817 | -75.16044 | 10561 ft | 304 kts | 29° |
| 2026-05-08 21:28 | 40.28537 | -75.14425 | 10143 ft | 303 kts | 30° |
| 2026-05-08 21:28 | 40.30250 | -75.12818 | 9742 ft | 301 kts | 30° |
| 2026-05-08 21:28 | 40.31944 | -75.11216 | 9340 ft | 297 kts | 32° |
| 2026-05-08 21:28 | 40.33409 | -75.09353 | 8937 ft | 298 kts | 43° |
| 2026-05-08 21:29 | 40.34804 | -75.07346 | 8552 ft | 297 kts | 44° |
| 2026-05-08 21:29 | 40.36208 | -75.05350 | 8161 ft | 294 kts | 43° |
| 2026-05-08 21:29 | 40.37624 | -75.03394 | 7750 ft | 293 kts | 42° |
| 2026-05-08 21:29 | 40.38999 | -75.01430 | 7369 ft | 289 kts | 44° |
| 2026-05-08 21:30 | 40.40352 | -74.99484 | 7001 ft | 287 kts | 43° |
| 2026-05-08 21:30 | 40.41708 | -74.97623 | 6992 ft | 284 kts | 42° |
| 2026-05-08 21:30 | 40.43073 | -74.95734 | 7009 ft | 285 kts | 43° |
| 2026-05-08 21:30 | 40.44424 | -74.93821 | 7004 ft | 286 kts | 43° |
| 2026-05-08 21:31 | 40.45775 | -74.91886 | 6989 ft | 291 kts | 44° |
| 2026-05-08 21:31 | 40.47129 | -74.89969 | 6536 ft | 285 kts | 43° |
| 2026-05-08 21:31 | 40.48492 | -74.88067 | 5848 ft | 284 kts | 43° |
| 2026-05-08 21:31 | 40.49827 | -74.86191 | 5263 ft | 280 kts | 43° |
| 2026-05-08 21:32 | 40.51151 | -74.84311 | 4624 ft | 279 kts | 44° |
| 2026-05-08 21:32 | 40.52452 | -74.82466 | 4091 ft | 281 kts | 44° |
| 2026-05-08 21:32 | 40.53765 | -74.80617 | 3994 ft | 270 kts | 44° |
| 2026-05-08 21:32 | 40.55051 | -74.78803 | 4002 ft | 273 kts | 44° |
| 2026-05-08 21:33 | 40.56341 | -74.76967 | 3989 ft | 274 kts | 45° |
| 2026-05-08 21:33 | 40.57762 | -74.75308 | 3973 ft | 272 kts | 32° |
| 2026-05-08 21:33 | 40.59353 | -74.73982 | 3982 ft | 270 kts | 28° |
| 2026-05-08 21:33 | 40.60970 | -74.72698 | 3984 ft | 272 kts | 28° |
| 2026-05-08 21:34 | 40.62582 | -74.71415 | 3992 ft | 269 kts | 27° |
| 2026-05-08 21:34 | 40.64194 | -74.70137 | 3987 ft | 270 kts | 27° |
| 2026-05-08 21:34 | 40.65805 | -74.68856 | 3989 ft | 270 kts | 28° |
| 2026-05-08 21:34 | 40.67414 | -74.67572 | 3980 ft | 271 kts | 28° |
| 2026-05-08 21:35 | 40.69002 | -74.66303 | 3980 ft | 270 kts | 28° |
| 2026-05-08 21:35 | 40.70629 | -74.65008 | 3993 ft | 271 kts | 28° |
| 2026-05-08 21:35 | 40.72244 | -74.63732 | 3990 ft | 269 kts | 27° |
| 2026-05-08 21:35 | 40.73835 | -74.62476 | 4003 ft | 270 kts | 28° |
| 2026-05-08 21:36 | 40.75442 | -74.61202 | 4002 ft | 270 kts | 28° |
| 2026-05-08 21:36 | 40.77048 | -74.59928 | 3999 ft | 269 kts | 27° |
| 2026-05-08 21:36 | 40.78655 | -74.58653 | 4000 ft | 270 kts | 28° |
| 2026-05-08 21:36 | 40.80263 | -74.57378 | 4012 ft | 270 kts | 27° |
| 2026-05-08 21:37 | 40.81873 | -74.56103 | 4016 ft | 269 kts | 27° |
| 2026-05-08 21:37 | 40.83458 | -74.54842 | 4009 ft | 269 kts | 28° |
| 2026-05-08 21:37 | 40.85082 | -74.53557 | 4007 ft | 268 kts | 27° |
| 2026-05-08 21:37 | 40.86685 | -74.52292 | 4005 ft | 269 kts | 27° |
| 2026-05-08 21:38 | 40.88291 | -74.51029 | 4021 ft | 269 kts | 27° |
| 2026-05-08 21:38 | 40.89895 | -74.49772 | 4021 ft | 267 kts | 27° |
| 2026-05-08 21:38 | 40.91475 | -74.48524 | 4017 ft | 268 kts | 28° |
| 2026-05-08 21:38 | 40.93084 | -74.47250 | 4009 ft | 269 kts | 27° |
| 2026-05-08 21:39 | 40.94685 | -74.45984 | 4007 ft | 268 kts | 27° |
| 2026-05-08 21:39 | 40.96286 | -74.44719 | 4013 ft | 267 kts | 27° |
| 2026-05-08 21:39 | 40.97765 | -74.43373 | 3947 ft | 253 kts | 43° |
| 2026-05-08 21:39 | 40.98575 | -74.41334 | 3528 ft | 254 kts | 72° |
| 2026-05-08 21:40 | 40.98966 | -74.39037 | 3025 ft | 253 kts | 78° |
| 2026-05-08 21:40 | 40.99321 | -74.36782 | 2618 ft | 248 kts | 77° |
| 2026-05-08 21:40 | 40.99653 | -74.34607 | 2316 ft | 231 kts | 77° |
| 2026-05-08 21:41 | 41.00214 | -74.30677 | 2113 ft | 213 kts | 78° |
| 2026-05-08 21:41 | 41.00497 | -74.28715 | 2129 ft | 216 kts | 77° |
| 2026-05-08 21:41 | 41.00778 | -74.26770 | 2120 ft | 218 kts | 78° |
| 2026-05-08 21:41 | 41.01030 | -74.24790 | 2108 ft | 218 kts | 82° |
| 2026-05-08 21:42 | 41.01130 | -74.22778 | 2106 ft | 219 kts | 85° |
| 2026-05-08 21:42 | 41.01224 | -74.20771 | 2112 ft | 219 kts | 83° |
| 2026-05-08 21:42 | 41.01410 | -74.18769 | 2114 ft | 218 kts | 80° |
| 2026-05-08 21:42 | 41.01629 | -74.16770 | 2109 ft | 220 kts | 81° |
| 2026-05-08 21:43 | 41.01756 | -74.15555 | 2109 ft | 218 kts | 81° |
| 2026-05-08 21:44 | 41.01937 | -74.13698 | 2115 ft | 218 kts | 81° |
| 2026-05-08 21:44 | 41.02110 | -74.11705 | 2113 ft | 217 kts | 85° |
| 2026-05-08 21:44 | 41.02255 | -74.09761 | 2103 ft | 209 kts | 87° |
| 2026-05-08 21:44 | 41.02381 | -74.07862 | 2104 ft | 199 kts | 88° |
| 2026-05-08 21:45 | 41.02486 | -74.06081 | 2101 ft | 192 kts | 88° |
| 2026-05-08 21:45 | 41.02397 | -74.04349 | 2018 ft | 191 kts | 114° |
| 2026-05-08 21:45 | 41.01445 | -74.03260 | 1978 ft | 185 kts | 165° |
| 2026-05-08 21:45 | 41.00213 | -74.03608 | 1981 ft | 189 kts | 215° |
| 2026-05-08 21:46 | 40.99482 | -74.05019 | 2087 ft | 189 kts | 228° |
| 2026-05-08 21:46 | 40.98289 | -74.05527 | 2019 ft | 185 kts | 171° |
| 2026-05-08 21:46 | 40.97002 | -74.05297 | 2119 ft | 191 kts | 175° |
| 2026-05-08 21:46 | 40.95719 | -74.05206 | 1960 ft | 170 kts | 178° |
| 2026-05-08 21:47 | 40.94618 | -74.05295 | 1792 ft | 153 kts | 184° |
| 2026-05-08 21:47 | 40.93641 | -74.05484 | 1607 ft | 130 kts | 184° |
| 2026-05-08 21:47 | 40.92760 | -74.05567 | 1456 ft | 128 kts | 179° |
| 2026-05-08 21:47 | 40.91872 | -74.05532 | 1347 ft | 128 kts | 174° |
| 2026-05-08 21:48 | 40.90983 | -74.05527 | 1265 ft | 130 kts | 180° |
| 2026-05-08 21:48 | 40.90081 | -74.05583 | 1062 ft | 133 kts | 180° |
| 2026-05-08 21:48 | 40.89122 | -74.05650 | 822 ft | 138 kts | 184° |
| 2026-05-08 21:48 | 40.88178 | -74.05729 | 620 ft | 134 kts | 184° |
| 2026-05-08 21:49 | 40.87229 | -74.05791 | 397 ft | 136 kts | 183° |
| 2026-05-08 21:49 | 40.86394 | -74.05860 | 207 ft | 134 kts | 184° |
| 2026-05-08 21:49 | 40.85829 | -74.05892 | 104 ft | 132 kts | 181° |
| 2026-05-08 21:49 | 40.84941 | -74.05958 | 9 ft | 112 kts | 182° |
| 2026-05-08 21:50 | 40.84430 | -74.05996 | 15 ft | 36 kts | 183° |
| 2026-05-08 21:50 | 40.84294 | -74.06072 | 11 ft | 18 kts | 224° |
| 2026-05-08 21:50 | 40.84279 | -74.06145 | 11 ft | 9 kts | 320° |
| 2026-05-08 21:50 | 40.84339 | -74.06148 | 11 ft | 11 kts | 4° |
| 2026-05-08 21:51 | 40.84446 | -74.06140 | 11 ft | 17 kts | 3° |
| 2026-05-08 21:51 | 40.84564 | -74.06131 | 11 ft | 17 kts | 3° |
| 2026-05-08 21:51 | 40.84694 | -74.06121 | 12 ft | 23 kts | 3° |
| 2026-05-08 21:51 | 40.84854 | -74.06110 | 12 ft | 22 kts | 4° |
| 2026-05-08 21:52 | 40.85010 | -74.06098 | 11 ft | 22 kts | 2° |
| 2026-05-08 21:52 | 40.85149 | -74.06088 | 12 ft | 13 kts | 6° |
| 2026-05-08 21:52 | 40.85212 | -74.06018 | 12 ft | 14 kts | 46° |
| 2026-05-08 21:52 | 40.85285 | -74.05913 | 10 ft | 17 kts | 47° |
| 2026-05-08 21:53 | 40.85361 | -74.05801 | 13 ft | 15 kts | 47° |
| 2026-05-08 21:53 | 40.85424 | -74.05709 | 14 ft | 12 kts | 48° |
| 2026-05-08 21:53 | 40.85452 | -74.05652 | 14 ft | 4 kts | 98° |
| 2026-05-08 21:53 | 40.85437 | -74.05619 | 14 ft | 5 kts | 109° |
| 2026-05-08 21:54 | 40.85445 | -74.05574 | 14 ft | 5 kts | 64° |
| 2026-05-08 21:54 | 40.85457 | -74.05537 | 14 ft | 4 kts | 72° |
| 2026-05-08 21:54 | 40.85451 | -74.05493 | 15 ft | 1 kts | 129° |
| 2026-05-08 21:54 | 40.85438 | -74.05494 | 15 ft | 4 kts | 186° |
| 2026-05-08 21:55 | 40.85424 | -74.05507 | 15 ft | 0 kts | 251° |